Station Historical Data
Daily Summary for February 11, 2012 Units:  English    Metric   Both
« Previous Day
Next Day »
Daily Weekly Monthly Yearly Custom
  High: Low: Average:
Temperature: 37.3 °F 20.7 °F 28.5 °F
Dew Point: 35.8 °F 6.7 °F 17.7 °F
Humidity: 96% 36% 66%
Wind Speed: 22.0mph 2.0mph 9.5mph
Wind Gust: 28.0mph - -
Wind- - WNW
Pressure: 30.51 in 30.03 in -
Precipitation: 0.01 in    
Historical Graphs
 
 
Tabular Data for February 11, 2012
Time Temperature Dew Point Pressure Wind Wind Speed Wind Gust Humidity Rainfall Rate (Hourly) Conditions
00:00 37.1 °F 35.8 °F 30.06 in WSW 3.0 mph 8.0 mph 95% 0.00 in
00:02 37.1 °F 35.8 °F 30.06 in WSW 5.0 mph 5.0 mph 95% 0.00 in
00:07 37.1 °F 35.8 °F 30.06 in WNW 3.0 mph 6.0 mph 95% 0.00 in
00:12 37.1 °F 35.8 °F 30.06 in West 7.0 mph 7.0 mph 95% 0.00 in
00:17 37.1 °F 35.8 °F 30.06 in WNW 5.0 mph 8.0 mph 95% 0.00 in
00:22 37.1 °F 35.8 °F 30.06 in WNW 3.0 mph 9.0 mph 95% 0.00 in
00:27 37.1 °F 35.8 °F 30.06 in West 6.0 mph 7.0 mph 95% 0.00 in
00:32 37.1 °F 35.8 °F 30.06 in West 3.0 mph 8.0 mph 95% 0.00 in
00:37 37.1 °F 35.8 °F 30.06 in WNW 7.0 mph 10.0 mph 95% 0.00 in
00:42 37.1 °F 35.8 °F 30.06 in WNW 6.0 mph 9.0 mph 95% 0.00 in
00:47 37.1 °F 35.8 °F 30.06 in WNW 9.0 mph 11.0 mph 95% 0.00 in
00:52 37.1 °F 35.8 °F 30.06 in West 4.0 mph 8.0 mph 95% 0.00 in
00:57 37.1 °F 35.8 °F 30.06 in WNW 4.0 mph 7.0 mph 95% 0.00 in
01:02 37.1 °F 35.8 °F 30.05 in WNW 5.0 mph 8.0 mph 95% 0.00 in
01:07 37.1 °F 35.8 °F 30.05 in WNW 3.0 mph 6.0 mph 95% 0.00 in
01:13 37.1 °F 35.8 °F 30.04 in WNW 5.0 mph 6.0 mph 95% 0.00 in
01:18 37.1 °F 35.5 °F 30.03 in WNW 2.0 mph 7.0 mph 94% 0.00 in
01:23 37.1 °F 35.5 °F 30.04 in NW 6.0 mph 6.0 mph 94% 0.00 in
01:28 37.1 °F 35.5 °F 30.04 in WNW 4.0 mph 5.0 mph 94% 0.00 in
01:33 37.1 °F 35.5 °F 30.04 in WNW 4.0 mph 5.0 mph 94% 0.00 in
01:38 37.1 °F 35.5 °F 30.04 in WNW 2.0 mph 5.0 mph 94% 0.00 in
01:43 37.1 °F 35.5 °F 30.04 in NW 5.0 mph 7.0 mph 94% 0.00 in
01:48 37.1 °F 35.5 °F 30.04 in WNW 4.0 mph 5.0 mph 94% 0.00 in
01:53 37.1 °F 35.5 °F 30.05 in West 4.0 mph 6.0 mph 94% 0.00 in
01:58 37.2 °F 35.6 °F 30.05 in WNW 7.0 mph 9.0 mph 94% 0.00 in
02:03 37.2 °F 35.6 °F 30.05 in NW 4.0 mph 7.0 mph 94% 0.00 in
02:08 37.3 °F 35.7 °F 30.06 in West 2.0 mph 7.0 mph 94% 0.00 in
02:13 37.2 °F 35.6 °F 30.06 in WNW 4.0 mph 5.0 mph 94% 0.00 in
02:18 37.2 °F 35.6 °F 30.05 in WNW 2.0 mph 4.0 mph 94% 0.00 in
02:23 37.2 °F 35.6 °F 30.05 in WNW 3.0 mph 5.0 mph 94% 0.00 in
02:28 37.2 °F 35.6 °F 30.05 in West 2.0 mph 4.0 mph 94% 0.00 in
02:33 37.2 °F 35.6 °F 30.06 in WNW 4.0 mph 5.0 mph 94% 0.00 in
02:38 37.1 °F 35.5 °F 30.07 in WNW 7.0 mph 11.0 mph 94% 0.00 in
02:43 35.5 °F 33.4 °F 30.07 in NW 7.0 mph 13.0 mph 92% 0.00 in
02:48 34.4 °F 32.9 °F 30.07 in NW 11.0 mph 21.0 mph 94% 0.00 in
02:53 33.9 °F 32.4 °F 30.08 in NW 9.0 mph 17.0 mph 94% 0.00 in
02:58 33.5 °F 32.2 °F 30.08 in NW 14.0 mph 18.0 mph 95% 0.00 in
03:03 33.3 °F 32.0 °F 30.08 in WNW 7.0 mph 16.0 mph 95% 0.00 in
03:08 33.1 °F 31.8 °F 30.08 in NW 10.0 mph 13.0 mph 95% 0.00 in
03:13 32.9 °F 31.6 °F 30.09 in West 11.0 mph 12.0 mph 95% 0.00 in
03:18 32.6 °F 31.3 °F 30.09 in NW 9.0 mph 14.0 mph 95% 0.00 in
03:23 32.5 °F 31.5 °F 30.10 in NW 9.0 mph 12.0 mph 96% 0.00 in
03:28 32.3 °F 31.0 °F 30.10 in NNW 11.0 mph 18.0 mph 95% 0.00 in
03:33 32.0 °F 30.7 °F 30.10 in NW 12.0 mph 17.0 mph 95% 0.00 in
03:38 31.8 °F 30.5 °F 30.11 in NW 12.0 mph 17.0 mph 95% 0.00 in
03:44 31.6 °F 30.1 °F 30.11 in NNW 10.0 mph 15.0 mph 94% 0.00 in
03:49 31.4 °F 29.9 °F 30.11 in NNW 8.0 mph 16.0 mph 94% 0.00 in
03:54 31.4 °F 29.6 °F 30.12 in WNW 13.0 mph 17.0 mph 93% 0.00 in
03:59 31.4 °F 29.6 °F 30.12 in NNW 8.0 mph 13.0 mph 93% 0.00 in
04:04 31.3 °F 29.2 °F 30.12 in NW 10.0 mph 19.0 mph 92% 0.00 in
04:09 31.2 °F 28.9 °F 30.13 in WNW 10.0 mph 15.0 mph 91% 0.00 in
04:14 30.9 °F 28.6 °F 30.13 in NW 8.0 mph 15.0 mph 91% 0.00 in
04:19 30.8 °F 28.5 °F 30.14 in NW 8.0 mph 12.0 mph 91% 0.00 in
04:24 30.6 °F 28.0 °F 30.14 in NW 9.0 mph 17.0 mph 90% 0.00 in
04:29 30.6 °F 28.0 °F 30.15 in WNW 7.0 mph 15.0 mph 90% 0.00 in
04:34 30.5 °F 27.6 °F 30.16 in NW 11.0 mph 16.0 mph 89% 0.00 in
04:39 30.2 °F 27.1 °F 30.15 in WNW 15.0 mph 19.0 mph 88% 0.00 in
04:44 30.1 °F 26.7 °F 30.16 in WNW 8.0 mph 16.0 mph 87% 0.00 in
04:49 30.0 °F 26.9 °F 30.16 in WNW 6.0 mph 12.0 mph 88% 0.00 in
04:54 29.8 °F 26.7 °F 30.16 in WNW 14.0 mph 17.0 mph 88% 0.00 in
04:59 29.7 °F 26.6 °F 30.17 in NW 7.0 mph 15.0 mph 88% 0.00 in
05:04 29.6 °F 26.5 °F 30.17 in NNW 13.0 mph 16.0 mph 88% 0.00 in
05:09 29.4 °F 26.3 °F 30.17 in NW 13.0 mph 19.0 mph 88% 0.00 in
05:14 29.3 °F 26.5 °F 30.18 in NW 19.0 mph 19.0 mph 89% 0.00 in
05:19 29.1 °F 26.0 °F 30.18 in WNW 11.0 mph 17.0 mph 88% 0.00 in
05:24 29.0 °F 25.4 °F 30.19 in NW 8.0 mph 13.0 mph 86% 0.00 in
05:29 28.9 °F 25.2 °F 30.19 in WNW 7.0 mph 18.0 mph 86% 0.00 in
05:34 28.8 °F 25.1 °F 30.19 in WNW 12.0 mph 16.0 mph 86% 0.00 in
05:40 28.8 °F 24.9 °F 30.20 in WNW 15.0 mph 18.0 mph 85% 0.00 in
05:45 28.5 °F 24.0 °F 30.20 in NW 10.0 mph 23.0 mph 83% 0.00 in
05:50 28.2 °F 23.7 °F 30.21 in NW 7.0 mph 18.0 mph 83% 0.00 in
05:55 28.0 °F 23.2 °F 30.21 in WNW 12.0 mph 16.0 mph 82% 0.00 in
06:00 27.8 °F 23.0 °F 30.22 in WNW 18.0 mph 19.0 mph 82% 0.00 in
06:05 27.5 °F 22.1 °F 30.22 in WNW 13.0 mph 20.0 mph 80% 0.00 in
06:10 27.3 °F 22.0 °F 30.22 in NW 10.0 mph 21.0 mph 80% 0.00 in
06:15 27.1 °F 21.8 °F 30.22 in NW 12.0 mph 17.0 mph 80% 0.00 in
06:20 27.0 °F 21.4 °F 30.23 in WNW 7.0 mph 16.0 mph 79% 0.00 in
06:25 26.9 °F 21.0 °F 30.23 in West 12.0 mph 16.0 mph 78% 0.00 in
06:30 26.7 °F 20.5 °F 30.23 in WNW 9.0 mph 19.0 mph 77% 0.00 in
06:35 26.6 °F 20.4 °F 30.23 in NW 18.0 mph 18.0 mph 77% 0.00 in
06:40 26.5 °F 20.0 °F 30.24 in WNW 7.0 mph 14.0 mph 76% 0.00 in
06:45 26.5 °F 20.0 °F 30.24 in NW 11.0 mph 14.0 mph 76% 0.00 in
06:50 26.4 °F 19.2 °F 30.24 in NW 10.0 mph 18.0 mph 74% 0.00 in
06:55 26.2 °F 19.1 °F 30.24 in WNW 12.0 mph 18.0 mph 74% 0.00 in
07:00 26.2 °F 18.7 °F 30.24 in NW 11.0 mph 18.0 mph 73% 0.00 in
07:05 26.1 °F 18.3 °F 30.25 in NW 18.0 mph 20.0 mph 72% 0.00 in
07:10 26.0 °F 17.9 °F 30.25 in NW 9.0 mph 18.0 mph 71% 0.00 in
07:15 25.9 °F 18.1 °F 30.25 in NNW 11.0 mph 20.0 mph 72% 0.00 in
07:20 25.9 °F 18.1 °F 30.26 in WNW 18.0 mph 18.0 mph 72% 0.00 in
07:25 25.9 °F 18.1 °F 30.26 in NW 11.0 mph 13.0 mph 72% 0.00 in
07:30 25.8 °F 18.4 °F 30.26 in WNW 11.0 mph 19.0 mph 73% 0.00 in
07:35 25.8 °F 18.4 °F 30.26 in NW 8.0 mph 12.0 mph 73% 0.00 in
07:41 25.7 °F 18.6 °F 30.26 in WNW 12.0 mph 13.0 mph 74% 0.00 in
07:46 25.6 °F 18.5 °F 30.26 in NW 12.0 mph 16.0 mph 74% 0.00 in
07:51 25.5 °F 18.7 °F 30.26 in NW 14.0 mph 17.0 mph 75% 0.00 in
07:56 25.3 °F 18.5 °F 30.26 in NW 15.0 mph 22.0 mph 75% 0.00 in
08:01 25.3 °F 18.5 °F 30.27 in WNW 10.0 mph 17.0 mph 75% 0.00 in
08:06 25.2 °F 18.4 °F 30.28 in NNW 8.0 mph 16.0 mph 75% 0.00 in
08:11 25.1 °F 18.6 °F 30.28 in NW 7.0 mph 14.0 mph 76% 0.00 in
08:16 25.1 °F 18.6 °F 30.28 in NW 9.0 mph 19.0 mph 76% 0.00 in
08:21 25.1 °F 17.7 °F 30.28 in North 13.0 mph 19.0 mph 73% 0.00 in
08:26 25.1 °F 18.3 °F 30.28 in NW 7.0 mph 12.0 mph 75% 0.00 in
08:31 25.1 °F 18.3 °F 30.28 in NNW 13.0 mph 22.0 mph 75% 0.00 in
08:36 25.1 °F 18.6 °F 30.29 in NW 11.0 mph 16.0 mph 76% 0.00 in
08:41 25.0 °F 18.5 °F 30.29 in WNW 9.0 mph 17.0 mph 76% 0.00 in
08:46 25.0 °F 18.5 °F 30.30 in WNW 10.0 mph 13.0 mph 76% 0.00 in
08:51 24.9 °F 18.4 °F 30.30 in NNW 13.0 mph 18.0 mph 76% 0.00 in
08:56 24.8 °F 18.6 °F 30.30 in NW 11.0 mph 16.0 mph 77% 0.00 in
09:01 24.8 °F 18.6 °F 30.31 in NW 17.0 mph 17.0 mph 77% 0.00 in
09:06 24.6 °F 18.1 °F 30.31 in NNW 13.0 mph 20.0 mph 76% 0.00 in
09:11 24.5 °F 18.0 °F 30.30 in NW 20.0 mph 20.0 mph 76% 0.00 in
09:16 24.4 °F 17.6 °F 30.30 in NW 11.0 mph 21.0 mph 75% 0.00 in
09:21 24.5 °F 18.0 °F 30.30 in North 15.0 mph 15.0 mph 76% 0.00 in
09:26 24.5 °F 18.0 °F 30.30 in NW 15.0 mph 20.0 mph 76% 0.00 in
09:31 24.5 °F 18.0 °F 30.31 in NW 13.0 mph 19.0 mph 76% 0.00 in
09:36 24.8 °F 18.0 °F 30.30 in NW 10.0 mph 14.0 mph 75% 0.00 in
09:41 24.9 °F 17.5 °F 30.30 in NNE 14.0 mph 22.0 mph 73% 0.00 in
09:46 25.1 °F 18.0 °F 30.30 in NNW 10.0 mph 17.0 mph 74% 0.00 in
09:51 25.1 °F 18.0 °F 30.31 in WNW 12.0 mph 15.0 mph 74% 0.00 in
09:56 24.8 °F 17.4 °F 30.31 in NW 12.0 mph 21.0 mph 73% 0.00 in
10:01 24.7 °F 17.6 °F 30.31 in NNW 12.0 mph 20.0 mph 74% 0.00 in
10:06 24.8 °F 18.0 °F 30.31 in NNW 12.0 mph 14.0 mph 75% 0.00 in
10:11 25.1 °F 18.0 °F 30.31 in NW 8.0 mph 15.0 mph 74% 0.00 in
10:16 25.2 °F 17.5 °F 30.31 in NW 11.0 mph 20.0 mph 72% 0.00 in
10:21 25.3 °F 17.9 °F 30.31 in NNW 18.0 mph 19.0 mph 73% 0.00 in
10:26 25.4 °F 17.0 °F 30.32 in NW 11.0 mph 18.0 mph 70% 0.00 in
10:31 25.5 °F 17.1 °F 30.32 in NNE 16.0 mph 16.0 mph 70% 0.00 in
10:36 25.5 °F 16.8 °F 30.32 in NW 11.0 mph 21.0 mph 69% 0.00 in
10:41 25.4 °F 15.6 °F 30.32 in North 18.0 mph 26.0 mph 66% 0.00 in
10:46 25.4 °F 15.6 °F 30.33 in NNW 16.0 mph 25.0 mph 66% 0.00 in
10:51 25.4 °F 15.3 °F 30.33 in North 11.0 mph 22.0 mph 65% 0.00 in
10:56 25.9 °F 15.8 °F 30.33 in NNW 12.0 mph 22.0 mph 65% 0.00 in
11:01 26.2 °F 16.4 °F 30.34 in NNE 16.0 mph 24.0 mph 66% 0.00 in
11:06 25.8 °F 16.0 °F 30.34 in NW 21.0 mph 21.0 mph 66% 0.00 in
11:11 25.6 °F 16.5 °F 30.34 in North 13.0 mph 19.0 mph 68% 0.00 in
11:17 25.6 °F 16.2 °F 30.34 in NW 17.0 mph 22.0 mph 67% 0.00 in
11:22 25.7 °F 15.6 °F 30.35 in NNW 10.0 mph 28.0 mph 65% 0.00 in
11:27 26.4 °F 15.9 °F 30.35 in NW 10.0 mph 17.0 mph 64% 0.00 in
11:32 26.7 °F 15.8 °F 30.35 in NNW 13.0 mph 25.0 mph 63% 0.00 in
11:37 27.3 °F 17.1 °F 30.36 in NW 15.0 mph 16.0 mph 65% 0.00 in
11:42 27.2 °F 16.6 °F 30.36 in WNW 12.0 mph 19.0 mph 64% 0.00 in
11:47 26.6 °F 15.7 °F 30.37 in WNW 16.0 mph 25.0 mph 63% 0.00 in
11:52 26.6 °F 15.7 °F 30.37 in NW 15.0 mph 20.0 mph 63% 0.00 in
11:57 27.0 °F 16.8 °F 30.38 in WNW 22.0 mph 22.0 mph 65% 0.00 in
12:02 26.6 °F 15.4 °F 30.38 in NW 14.0 mph 19.0 mph 62% 0.00 in
12:07 26.7 °F 16.2 °F 30.37 in NNE 12.0 mph 19.0 mph 64% 0.00 in
12:12 27.2 °F 17.0 °F 30.37 in North 11.0 mph 21.0 mph 65% 0.00 in
12:17 27.7 °F 15.6 °F 30.37 in WNW 14.0 mph 18.0 mph 60% 0.00 in
12:22 27.5 °F 15.8 °F 30.37 in NW 14.0 mph 20.0 mph 61% 0.00 in
12:27 27.4 °F 15.4 °F 30.36 in NNW 12.0 mph 18.0 mph 60% 0.00 in
12:32 27.8 °F 15.7 °F 30.36 in NNW 9.0 mph 18.0 mph 60% 0.00 in
12:37 28.0 °F 15.9 °F 30.37 in NW 12.0 mph 25.0 mph 60% 0.00 in
12:42 27.8 °F 15.4 °F 30.37 in NNW 19.0 mph 20.0 mph 59% 0.00 in
12:47 27.9 °F 16.2 °F 30.37 in West 11.0 mph 15.0 mph 61% 0.00 in
12:52 28.2 °F 16.1 °F 30.36 in NW 13.0 mph 20.0 mph 60% 0.00 in
12:57 28.6 °F 14.5 °F 30.36 in WNW 12.0 mph 20.0 mph 55% 0.00 in
13:02 29.2 °F 14.6 °F 30.36 in NW 10.0 mph 24.0 mph 54% 0.00 in
13:07 29.2 °F 15.1 °F 30.36 in NW 14.0 mph 20.0 mph 55% 0.00 in
13:12 29.1 °F 15.8 °F 30.36 in NNW 6.0 mph 16.0 mph 57% 0.00 in
13:17 29.2 °F 15.9 °F 30.36 in NW 9.0 mph 19.0 mph 57% 0.00 in
13:22 29.5 °F 14.9 °F 30.36 in West 8.0 mph 18.0 mph 54% 0.00 in
13:27 29.8 °F 16.0 °F 30.36 in NNW 11.0 mph 18.0 mph 56% 0.00 in
13:32 29.1 °F 15.0 °F 30.36 in NNW 6.0 mph 15.0 mph 55% 0.00 in
13:37 29.3 °F 14.7 °F 30.36 in North 15.0 mph 15.0 mph 54% 0.00 in
13:42 30.0 °F 15.8 °F 30.36 in NNW 12.0 mph 17.0 mph 55% 0.00 in
13:48 30.3 °F 15.7 °F 30.36 in NW 10.0 mph 19.0 mph 54% 0.00 in
13:53 29.7 °F 14.2 °F 30.36 in NW 12.0 mph 21.0 mph 52% 0.00 in
13:58 29.4 °F 14.8 °F 30.36 in NW 10.0 mph 17.0 mph 54% 0.00 in
14:03 29.0 °F 13.1 °F 30.36 in WNW 11.0 mph 13.0 mph 51% 0.00 in
14:08 29.4 °F 13.1 °F 30.36 in NW 16.0 mph 16.0 mph 50% 0.00 in
14:13 30.3 °F 13.9 °F 30.36 in NW 15.0 mph 16.0 mph 50% 0.00 in
14:18 30.4 °F 14.4 °F 30.37 in NNW 7.0 mph 16.0 mph 51% 0.00 in
14:23 30.3 °F 12.5 °F 30.37 in NW 11.0 mph 20.0 mph 47% 0.00 in
14:28 30.4 °F 14.0 °F 30.37 in WNW 11.0 mph 15.0 mph 50% 0.00 in
14:33 30.7 °F 13.4 °F 30.36 in NNW 10.0 mph 19.0 mph 48% 0.00 in
14:38 30.4 °F 11.1 °F 30.37 in WNW 11.0 mph 17.0 mph 44% 0.00 in
14:43 31.0 °F 14.6 °F 30.37 in NNW 13.0 mph 20.0 mph 50% 0.00 in
14:48 31.3 °F 13.4 °F 30.37 in NNW 8.0 mph 15.0 mph 47% 0.00 in
14:53 31.3 °F 13.9 °F 30.37 in NW 14.0 mph 14.0 mph 48% 0.00 in
14:58 31.1 °F 13.2 °F 30.37 in WNW 12.0 mph 18.0 mph 47% 0.00 in
15:03 30.8 °F 12.0 °F 30.37 in NNW 8.0 mph 17.0 mph 45% 0.00 in
15:08 31.0 °F 12.7 °F 30.37 in NNE 11.0 mph 20.0 mph 46% 0.00 in
15:13 31.1 °F 12.2 °F 30.37 in WNW 19.0 mph 19.0 mph 45% 0.00 in
15:18 31.1 °F 12.2 °F 30.38 in NW 17.0 mph 17.0 mph 45% 0.00 in
15:23 30.8 °F 11.5 °F 30.38 in NNW 8.0 mph 13.0 mph 44% 0.00 in
15:28 31.1 °F 12.2 °F 30.38 in WNW 10.0 mph 12.0 mph 45% 0.00 in
15:33 31.4 °F 11.5 °F 30.38 in WNW 6.0 mph 16.0 mph 43% 0.00 in
15:38 31.2 °F 11.3 °F 30.38 in West 13.0 mph 19.0 mph 43% 0.00 in
15:44 30.8 °F 9.9 °F 30.38 in WNW 13.0 mph 15.0 mph 41% 0.00 in
15:49 30.9 °F 10.5 °F 30.39 in NNW 9.0 mph 15.0 mph 42% 0.00 in
15:54 31.0 °F 10.6 °F 30.38 in North 13.0 mph 25.0 mph 42% 0.00 in
15:59 31.3 °F 11.4 °F 30.39 in NW 7.0 mph 18.0 mph 43% 0.00 in
16:04 31.3 °F 10.3 °F 30.39 in NW 12.0 mph 17.0 mph 41% 0.00 in
16:09 31.4 °F 10.4 °F 30.39 in WNW 9.0 mph 15.0 mph 41% 0.00 in
16:14 31.4 °F 7.6 °F 30.39 in WNW 12.0 mph 19.0 mph 36% 0.00 in
16:19 31.2 °F 7.4 °F 30.39 in WNW 6.0 mph 19.0 mph 36% 0.00 in
16:24 31.5 °F 8.2 °F 30.40 in NW 6.0 mph 13.0 mph 37% 0.00 in
16:29 31.6 °F 8.3 °F 30.40 in WNW 11.0 mph 19.0 mph 37% 0.00 in
16:34 31.6 °F 8.3 °F 30.40 in NNW 13.0 mph 16.0 mph 37% 0.00 in
16:39 31.2 °F 7.4 °F 30.40 in NW 10.0 mph 17.0 mph 36% 0.00 in
16:44 31.4 °F 7.6 °F 30.40 in NW 10.0 mph 15.0 mph 36% 0.00 in
16:49 31.6 °F 7.7 °F 30.41 in NW 8.0 mph 11.0 mph 36% 0.00 in
16:51 31.6 °F 8.3 °F 30.40 in NW 4.0 mph 9.0 mph 37% 0.00 in
16:56 31.7 °F 9.0 °F 30.41 in NW 10.0 mph 14.0 mph 38% 0.00 in
17:01 31.2 °F 9.1 °F 30.41 in NW 14.0 mph 15.0 mph 39% 0.00 in
17:06 31.0 °F 9.0 °F 30.41 in WNW 8.0 mph 13.0 mph 39% 0.00 in
17:11 30.8 °F 8.2 °F 30.41 in NW 11.0 mph 15.0 mph 38% 0.00 in
17:16 30.5 °F 6.7 °F 30.41 in WNW 8.0 mph 18.0 mph 36% 0.00 in
17:21 30.4 °F 7.3 °F 30.42 in NW 16.0 mph 17.0 mph 37% 0.00 in
17:26 30.2 °F 8.2 °F 30.41 in WNW 14.0 mph 14.0 mph 39% 0.00 in
17:32 30.1 °F 8.1 °F 30.42 in WNW 13.0 mph 14.0 mph 39% 0.00 in
17:37 30.0 °F 6.9 °F 30.42 in NW 8.0 mph 16.0 mph 37% 0.00 in
17:42 29.9 °F 6.8 °F 30.42 in NW 9.0 mph 16.0 mph 37% 0.00 in
17:47 29.7 °F 7.2 °F 30.42 in NW 11.0 mph 19.0 mph 38% 0.00 in
17:52 29.4 °F 6.9 °F 30.42 in NNW 9.0 mph 18.0 mph 38% 0.00 in
17:57 29.3 °F 6.9 °F 30.42 in WNW 10.0 mph 17.0 mph 38% 0.00 in
18:02 29.1 °F 7.2 °F 30.42 in NW 7.0 mph 16.0 mph 39% 0.00 in
18:07 28.9 °F 7.6 °F 30.42 in NNW 12.0 mph 15.0 mph 40% 0.00 in
18:12 28.7 °F 7.4 °F 30.42 in North 12.0 mph 18.0 mph 40% 0.00 in
18:17 28.5 °F 7.8 °F 30.42 in NNW 7.0 mph 12.0 mph 41% 0.00 in
18:22 28.4 °F 7.7 °F 30.42 in NW 9.0 mph 12.0 mph 41% 0.00 in
18:27 28.0 °F 8.4 °F 30.42 in NW 11.0 mph 14.0 mph 43% 0.00 in
18:32 27.7 °F 8.6 °F 30.42 in NW 4.0 mph 8.0 mph 44% 0.00 in
18:37 27.5 °F 9.4 °F 30.42 in NW 8.0 mph 15.0 mph 46% 0.00 in
18:42 27.5 °F 9.9 °F 30.43 in WNW 10.0 mph 16.0 mph 47% 0.00 in
18:47 27.3 °F 10.7 °F 30.44 in NNW 8.0 mph 12.0 mph 49% 0.00 in
18:52 27.2 °F 10.6 °F 30.44 in NW 6.0 mph 10.0 mph 49% 0.00 in
18:57 27.1 °F 10.5 °F 30.44 in WNW 10.0 mph 12.0 mph 49% 0.00 in
19:02 26.9 °F 10.3 °F 30.44 in WNW 8.0 mph 12.0 mph 49% 0.00 in
19:07 26.7 °F 10.1 °F 30.44 in WNW 7.0 mph 8.0 mph 49% 0.00 in
19:12 26.5 °F 10.4 °F 30.44 in NW 5.0 mph 8.0 mph 50% 0.00 in
19:17 26.3 °F 10.2 °F 30.44 in NW 5.0 mph 10.0 mph 50% 0.00 in
19:22 26.1 °F 10.0 °F 30.44 in NW 12.0 mph 14.0 mph 50% 0.00 in
19:27 26.0 °F 9.9 °F 30.44 in NW 7.0 mph 9.0 mph 50% 0.00 in
19:32 25.8 °F 9.7 °F 30.44 in NNW 10.0 mph 11.0 mph 50% 0.00 in
19:37 25.8 °F 9.3 °F 30.44 in WNW 10.0 mph 10.0 mph 49% 0.00 in
19:42 25.8 °F 9.3 °F 30.44 in WNW 11.0 mph 11.0 mph 49% 0.00 in
19:47 25.6 °F 9.1 °F 30.45 in NW 4.0 mph 10.0 mph 49% 0.00 in
19:52 25.4 °F 9.4 °F 30.45 in NW 5.0 mph 10.0 mph 50% 0.00 in
19:57 25.3 °F 8.8 °F 30.45 in NW 7.0 mph 11.0 mph 49% 0.00 in
20:02 25.4 °F 8.9 °F 30.45 in NW 7.0 mph 16.0 mph 49% 0.00 in
20:07 25.3 °F 8.8 °F 30.45 in WNW 6.0 mph 11.0 mph 49% 0.00 in
20:12 25.2 °F 8.7 °F 30.45 in NW 8.0 mph 12.0 mph 49% 0.00 in
20:17 25.0 °F 9.0 °F 30.45 in NW 9.0 mph 11.0 mph 50% 0.00 in
20:22 24.9 °F 8.9 °F 30.45 in NW 6.0 mph 12.0 mph 50% 0.00 in
20:27 24.8 °F 8.8 °F 30.46 in NW 8.0 mph 15.0 mph 50% 0.00 in
20:32 24.7 °F 8.7 °F 30.46 in NW 10.0 mph 14.0 mph 50% 0.00 in
20:38 24.7 °F 8.7 °F 30.46 in NW 4.0 mph 12.0 mph 50% 0.00 in
20:43 24.6 °F 8.6 °F 30.46 in NNW 9.0 mph 14.0 mph 50% 0.00 in
20:48 24.5 °F 8.5 °F 30.47 in NNW 12.0 mph 14.0 mph 50% 0.00 in
20:53 24.5 °F 8.1 °F 30.47 in NW 11.0 mph 17.0 mph 49% 0.00 in
20:58 24.4 °F 8.4 °F 30.47 in NNW 11.0 mph 13.0 mph 50% 0.00 in
21:03 24.2 °F 8.3 °F 30.47 in WNW 14.0 mph 14.0 mph 50% 0.00 in
21:08 24.2 °F 8.3 °F 30.47 in NW 6.0 mph 14.0 mph 50% 0.00 in
21:13 24.2 °F 7.8 °F 30.47 in NNW 9.0 mph 13.0 mph 49% 0.00 in
21:18 24.1 °F 8.2 °F 30.47 in NW 6.0 mph 12.0 mph 50% 0.00 in
21:23 24.0 °F 8.1 °F 30.48 in NNW 7.0 mph 12.0 mph 50% 0.00 in
21:28 23.9 °F 8.0 °F 30.48 in NW 7.0 mph 10.0 mph 50% 0.00 in
21:33 23.7 °F 8.2 °F 30.48 in WNW 10.0 mph 11.0 mph 51% 0.00 in
21:38 23.8 °F 7.9 °F 30.48 in NW 6.0 mph 12.0 mph 50% 0.00 in
21:43 23.6 °F 8.1 °F 30.48 in NW 8.0 mph 12.0 mph 51% 0.00 in
21:48 23.5 °F 8.1 °F 30.48 in NW 6.0 mph 10.0 mph 51% 0.00 in
21:53 23.3 °F 8.3 °F 30.49 in NW 4.0 mph 8.0 mph 52% 0.00 in
21:58 23.4 °F 7.9 °F 30.49 in NNW 6.0 mph 14.0 mph 51% 0.00 in
22:03 23.3 °F 7.9 °F 30.49 in NNW 8.0 mph 10.0 mph 51% 0.00 in
22:08 23.3 °F 8.3 °F 30.49 in NNW 7.0 mph 10.0 mph 52% 0.00 in
22:13 23.2 °F 8.2 °F 30.49 in NW 5.0 mph 8.0 mph 52% 0.00 in
22:18 23.2 °F 8.2 °F 30.49 in NW 6.0 mph 12.0 mph 52% 0.00 in
22:23 23.1 °F 8.1 °F 30.49 in NW 5.0 mph 12.0 mph 52% 0.00 in
22:28 22.9 °F 8.3 °F 30.50 in NW 6.0 mph 8.0 mph 53% 0.00 in
22:33 22.9 °F 8.3 °F 30.50 in NW 5.0 mph 5.0 mph 53% 0.00 in
22:38 22.8 °F 8.7 °F 30.50 in NW 4.0 mph 9.0 mph 54% 0.00 in
22:43 22.7 °F 8.6 °F 30.50 in WNW 3.0 mph 8.0 mph 54% 0.00 in
22:49 22.4 °F 8.7 °F 30.50 in NW 6.0 mph 6.0 mph 55% 0.00 in
22:54 22.5 °F 8.4 °F 30.50 in WNW 4.0 mph 9.0 mph 54% 0.00 in
22:59 22.3 °F 8.6 °F 30.50 in NW 4.0 mph 5.0 mph 55% 0.00 in
23:04 22.2 °F 8.9 °F 30.50 in NW 4.0 mph 4.0 mph 56% 0.00 in
23:09 22.1 °F 8.8 °F 30.50 in NW 4.0 mph 6.0 mph 56% 0.00 in
23:14 21.8 °F 8.9 °F 30.50 in NNW 4.0 mph 4.0 mph 57% 0.00 in
23:19 21.7 °F 9.2 °F 30.51 in NW 3.0 mph 4.0 mph 58% 0.00 in
23:24 21.4 °F 8.9 °F 30.51 in NW 2.0 mph 3.0 mph 58% 0.00 in
23:29 21.3 °F 8.8 °F 30.51 in NW 3.0 mph 4.0 mph 58% 0.00 in
23:34 21.2 °F 9.1 °F 30.51 in NW 2.0 mph 3.0 mph 59% 0.00 in
23:39 21.1 °F 9.0 °F 30.51 in WNW 2.0 mph 5.0 mph 59% 0.00 in
23:44 21.0 °F 8.9 °F 30.51 in WNW 3.0 mph 4.0 mph 59% 0.00 in
23:49 20.8 °F 9.1 °F 30.51 in WNW 3.0 mph 4.0 mph 60% 0.00 in
23:54 20.7 °F 9.0 °F 30.51 in NW 2.0 mph 4.0 mph 60% 0.00 in
23:59 20.7 °F 9.0 °F 30.50 in NW 4.0 mph 5.0 mph 60% 0.00 in
Compliments of Weather Underground